Keene, NH (03431)

7:02 PM EST on February 01, 2015 (GMT -0500)
Keene (Royal Ave) | Change Station
CLOSE
Current Station
Personal Weather Station
Location: Keene, NH
Elevation: 505 ft
Nearby Weather Stations
Active Advisory: Winter Storm Warning

Elev 505 ft 42.94 °N, 72.31 °W | Updated 5 seconds ago

Clear
Clear
17.5 °F
Feels Like 18 °F
N
0.0
Wind Variable Wind from North
Gusts 0.0 mph

Today
High -- | Low -- °F
--% Chance of Precip.
Yesterday
High -- | Low -- °F
Precip. -- in
7:04 AM 5:01 PM
Waxing Gibbous, 96% visible
Pressure 30.12 in
Visibility 10.0 miles
Clouds Clear
Windchill 18 °F
Dew Point 2 °F
Humidity 51%
Rainfall 0.00 in
Snow Depth Not available.
UV 0 out of 12
Pollen .10 out of 12
Air Quality Not available.
Flu Activity Not available.
METAR KEEN 012355Z AUTO 00000KT 10SM CLR M08/M17 A3012 RMK AO1 11040 21080 410401220 52003

More Conditions Fewer Conditions

Pressure 30.12 in
Visibility 10.0 miles
Clouds Clear
Windchill 18 °F
Dew Point 2 °F
Humidity 51%
Rainfall 0.00 in
Snow Depth Not available.
UV 0 out of 12
Pollen .10 out of 12
Air Quality Not available.
Flu Activity Not available.
METAR KEEN 012355Z AUTO 00000KT 10SM CLR M08/M17 A3012 RMK AO1 11040 21080 410401220 52003

More Conditions Fewer Conditions

10-Day Weather Forecast

Almanac

Astronomy

Feb. 01, 2015 Rise Set
Actual Time
Civil Twilight
Nautical Twilight
Astronomical Twilight
Moon
Length of Visible Light
Length of Day
Tomorrow will be .
, % of the Moon is Illuminated

Today's Extremes

State Highs State Lows

Community

WunderPhotos

Upload Photos

1,792,618 photos uploaded!

WunderBlogs® & News

Nearby

Air Quality

  Air Quality AQ Index Pollutant
Not available.

Snow Depth

Station Depth Elevation

Earthquake Activity

City Distance Mag. Time & Date
Minimum magnitude displayed is 2.5.

Coastal Water Temperatures

Place Temperature

Nearby Weather Stations